createdAt,value
2022-12-29T00:00:13.464Z,98500.00
2022-12-29T00:03:02.168Z,98497.80
2022-12-29T00:05:30.194Z,98499.60
2022-12-29T00:07:57.984Z,98490.60
2022-12-29T00:10:25.732Z,98488.00
2022-12-29T00:13:12.134Z,98488.20
2022-12-29T00:15:40.073Z,98495.60
2022-12-29T00:18:09.226Z,98488.80
2022-12-29T00:20:56.735Z,98501.60
2022-12-29T00:23:43.010Z,98495.00
2022-12-29T00:26:35.812Z,98481.60
2022-12-29T00:29:22.792Z,98483.40
2022-12-29T00:32:10.905Z,98481.40
2022-12-29T00:34:57.374Z,98482.20
2022-12-29T00:37:45.162Z,98481.00
2022-12-29T00:40:31.817Z,98473.80
2022-12-29T00:43:18.166Z,98474.60
2022-12-29T00:45:46.102Z,98479.20
2022-12-29T00:48:13.830Z,98477.60
2022-12-29T00:50:41.857Z,98469.20
2022-12-29T00:53:09.598Z,98480.60
2022-12-29T00:55:38.997Z,98467.40
2022-12-29T00:58:06.748Z,98472.60
2022-12-29T01:00:35.079Z,98475.40
2022-12-29T01:03:03.747Z,98470.00
2022-12-29T01:05:31.731Z,98461.00
2022-12-29T01:07:59.411Z,98463.60
2022-12-29T01:10:27.233Z,98457.80
2022-12-29T01:12:55.149Z,98454.00
2022-12-29T01:15:23.353Z,98457.40
2022-12-29T01:17:51.103Z,98462.20
2022-12-29T01:20:19.391Z,98447.00
2022-12-29T01:22:48.187Z,98449.00
2022-12-29T01:25:15.935Z,98444.80
2022-12-29T01:27:43.633Z,98439.00
2022-12-29T01:30:12.107Z,98435.20
2022-12-29T01:32:39.847Z,98432.60
2022-12-29T01:35:08.162Z,98449.40
2022-12-29T01:37:36.466Z,98435.80
2022-12-29T01:40:05.463Z,98440.40
2022-12-29T01:42:34.050Z,98454.80
2022-12-29T01:45:12.415Z,98449.20
2022-12-29T01:47:49.448Z,98461.20
2022-12-29T01:50:32.976Z,98467.40
2022-12-29T01:53:12.408Z,98472.80
2022-12-29T01:55:57.242Z,98470.00
2022-12-29T01:58:33.418Z,98482.80
2022-12-29T02:01:03.500Z,98473.80
2022-12-29T02:03:33.646Z,98481.60
2022-12-29T02:06:44.185Z,98490.20
2022-12-29T02:09:12.246Z,98480.80
2022-12-29T02:11:40.468Z,98478.20
2022-12-29T02:14:13.535Z,98477.80
2022-12-29T02:17:25.040Z,98483.00
2022-12-29T02:20:36.425Z,98482.40
2022-12-29T02:23:47.202Z,98482.60
2022-12-29T02:26:36.139Z,98480.00
2022-12-29T02:29:51.402Z,98483.60
2022-12-29T02:32:22.290Z,98485.40
2022-12-29T02:35:11.115Z,98486.00
2022-12-29T02:38:18.083Z,98490.20
2022-12-29T02:41:08.443Z,98494.80
2022-12-29T02:44:25.923Z,98493.80
2022-12-29T02:47:17.211Z,98499.00
2022-12-29T02:49:59.020Z,98495.80
2022-12-29T02:52:36.674Z,98506.40
2022-12-29T02:55:05.187Z,98501.80
2022-12-29T02:57:36.442Z,98501.40
2022-12-29T03:00:13.120Z,98503.80
2022-12-29T03:03:17.610Z,98499.20
2022-12-29T03:06:10.720Z,98510.20
2022-12-29T03:09:28.962Z,98503.80
2022-12-29T03:12:15.369Z,98503.20
2022-12-29T03:15:11.792Z,98499.20
2022-12-29T03:17:55.658Z,98494.20
2022-12-29T03:20:39.809Z,98492.00
2022-12-29T03:23:09.539Z,98496.80
2022-12-29T03:25:47.096Z,98493.40
2022-12-29T03:28:23.360Z,98495.80
2022-12-29T03:30:51.971Z,98495.00
2022-12-29T03:33:27.952Z,98488.60
2022-12-29T03:36:04.026Z,98484.40
2022-12-29T03:38:45.046Z,98483.80
2022-12-29T03:41:20.812Z,98477.00
2022-12-29T03:43:48.623Z,98473.20
2022-12-29T03:46:16.505Z,98476.80
2022-12-29T03:48:44.473Z,98474.20
2022-12-29T03:51:12.277Z,98473.00
2022-12-29T03:53:40.456Z,98477.00
2022-12-29T03:56:09.299Z,98476.80
2022-12-29T03:58:37.084Z,98473.20
2022-12-29T04:01:11.524Z,98486.80
2022-12-29T04:03:39.641Z,98474.40
2022-12-29T04:06:08.703Z,98468.80
2022-12-29T04:08:48.992Z,98469.60
2022-12-29T04:11:16.884Z,98465.00
2022-12-29T04:13:46.622Z,98464.00
2022-12-29T04:16:18.102Z,98463.80
2022-12-29T04:18:46.627Z,98471.20
2022-12-29T04:21:14.423Z,98477.80
2022-12-29T04:23:43.755Z,98480.80
2022-12-29T04:26:12.223Z,98487.00
2022-12-29T04:28:59.745Z,98494.40
2022-12-29T04:31:36.386Z,98496.60
2022-12-29T04:34:04.370Z,98506.60
2022-12-29T04:36:32.393Z,98510.40
2022-12-29T04:39:01.137Z,98528.00
2022-12-29T04:41:29.084Z,98539.60
2022-12-29T04:43:56.854Z,98542.60
2022-12-29T04:46:48.212Z,98542.40
2022-12-29T04:49:34.905Z,98551.60
2022-12-29T04:52:21.007Z,98549.20
2022-12-29T04:54:48.922Z,98558.20
2022-12-29T04:57:20.342Z,98557.40
2022-12-29T04:59:52.289Z,98567.40
2022-12-29T05:02:20.472Z,98578.40
2022-12-29T05:04:51.000Z,98583.20
2022-12-29T05:07:20.082Z,98591.80
2022-12-29T05:09:49.555Z,98593.40
2022-12-29T05:12:17.271Z,98590.80
2022-12-29T05:15:07.419Z,98607.80
2022-12-29T05:17:35.707Z,98619.00
2022-12-29T05:20:06.329Z,98633.20
2022-12-29T05:22:35.089Z,98630.00
2022-12-29T05:25:03.106Z,98645.40
2022-12-29T05:27:33.642Z,98651.80
2022-12-29T05:30:12.296Z,98658.60
2022-12-29T05:32:40.362Z,98672.80
2022-12-29T05:35:09.695Z,98676.40
2022-12-29T05:37:38.033Z,98693.60
2022-12-29T05:40:07.164Z,98700.40
2022-12-29T05:42:36.021Z,98701.40
2022-12-29T05:45:25.766Z,98712.20
2022-12-29T05:48:05.013Z,98722.80
2022-12-29T05:51:05.357Z,98725.40
2022-12-29T05:53:48.512Z,98734.00
2022-12-29T05:56:17.269Z,98742.00
2022-12-29T05:58:47.073Z,98748.80
2022-12-29T06:01:15.047Z,98750.60
2022-12-29T06:03:48.122Z,98760.80
2022-12-29T06:06:16.978Z,98767.40
2022-12-29T06:08:45.395Z,98772.80
2022-12-29T06:11:13.653Z,98772.00
2022-12-29T06:13:45.945Z,98770.00
2022-12-29T06:16:14.084Z,98779.60
2022-12-29T06:18:43.352Z,98783.00
2022-12-29T06:21:11.183Z,98791.20
2022-12-29T06:23:38.992Z,98801.60
2022-12-29T06:26:06.793Z,98809.00
2022-12-29T06:28:34.592Z,98809.40
2022-12-29T06:31:03.913Z,98817.80
2022-12-29T06:33:31.814Z,98825.60
2022-12-29T06:35:59.581Z,98827.20
2022-12-29T06:38:27.401Z,98831.40
2022-12-29T06:40:55.138Z,98842.20
2022-12-29T06:43:22.812Z,98851.40
2022-12-29T06:46:00.003Z,98843.00
2022-12-29T06:48:27.763Z,98842.80
2022-12-29T06:50:55.447Z,98855.60
2022-12-29T06:53:23.190Z,98865.00
2022-12-29T06:55:51.495Z,98860.40
2022-12-29T06:58:19.692Z,98862.80
2022-12-29T07:00:47.784Z,98869.40
2022-12-29T07:03:15.715Z,98878.60
2022-12-29T07:05:43.803Z,98879.00
2022-12-29T07:08:11.651Z,98887.80
2022-12-29T07:10:39.615Z,98891.00
2022-12-29T07:13:08.751Z,98897.60
2022-12-29T07:15:38.782Z,98901.00
2022-12-29T07:18:06.615Z,98904.20
2022-12-29T07:20:34.566Z,98901.40
2022-12-29T07:23:04.031Z,98914.00
2022-12-29T07:25:31.802Z,98908.20
2022-12-29T07:27:59.549Z,98912.60
2022-12-29T07:30:27.468Z,98913.40
2022-12-29T07:32:55.234Z,98915.00
2022-12-29T07:35:23.265Z,98919.40
2022-12-29T07:37:51.382Z,98922.80
2022-12-29T07:40:19.143Z,98930.40
2022-12-29T07:42:46.886Z,98932.60
2022-12-29T07:45:17.062Z,98939.80
2022-12-29T07:47:57.635Z,98941.00
2022-12-29T07:50:25.333Z,98945.00
2022-12-29T07:52:53.071Z,98948.40
2022-12-29T07:55:20.788Z,98954.40
2022-12-29T07:57:48.742Z,98965.20
2022-12-29T08:00:17.092Z,98963.20
2022-12-29T08:02:44.912Z,98969.20
2022-12-29T08:05:13.093Z,98962.20
2022-12-29T08:07:40.881Z,98966.80
2022-12-29T08:10:08.811Z,98977.00
2022-12-29T08:12:36.832Z,98978.80
2022-12-29T08:15:07.389Z,98986.40
2022-12-29T08:17:35.853Z,98987.80
2022-12-29T08:20:05.717Z,98995.60
2022-12-29T08:22:33.528Z,99002.80
2022-12-29T08:25:01.394Z,99008.20
2022-12-29T08:27:29.156Z,99013.20
2022-12-29T08:29:57.186Z,99026.40
2022-12-29T08:32:24.939Z,99030.20
2022-12-29T08:34:52.709Z,99037.40
2022-12-29T08:37:23.927Z,99040.20
2022-12-29T08:39:55.255Z,99043.40
2022-12-29T08:42:23.048Z,99055.40
2022-12-29T08:44:51.386Z,99061.40
2022-12-29T08:47:19.102Z,99062.20
2022-12-29T08:49:46.774Z,99066.40
2022-12-29T08:52:14.524Z,99072.40
2022-12-29T08:54:42.303Z,99077.80
2022-12-29T08:57:10.239Z,99082.00
2022-12-29T08:59:43.705Z,99092.20
2022-12-29T09:02:16.365Z,99094.00
2022-12-29T09:04:46.803Z,99098.20
2022-12-29T09:07:14.647Z,99100.40
2022-12-29T09:09:42.367Z,99104.80
2022-12-29T09:12:10.393Z,99107.20
2022-12-29T09:14:38.224Z,99109.20
2022-12-29T09:17:24.740Z,99113.00
2022-12-29T09:19:52.676Z,99114.20
2022-12-29T09:22:20.559Z,99118.80
2022-12-29T09:24:48.340Z,99126.20
2022-12-29T09:27:16.165Z,99128.00
2022-12-29T09:29:44.089Z,99131.00
2022-12-29T09:32:18.206Z,99138.20
2022-12-29T09:34:46.423Z,99129.00
2022-12-29T09:37:14.203Z,99136.40
2022-12-29T09:39:41.959Z,99136.80
2022-12-29T09:42:24.878Z,99158.60
2022-12-29T09:45:22.479Z,99168.80
2022-12-29T09:47:51.862Z,99168.80
2022-12-29T09:50:31.524Z,99175.00
2022-12-29T09:53:13.957Z,99171.00
2022-12-29T09:55:57.137Z,99175.60
2022-12-29T09:58:37.332Z,99177.60
2022-12-29T10:01:27.258Z,99185.60
2022-12-29T10:03:59.044Z,99190.40
2022-12-29T10:06:50.180Z,99194.80
2022-12-29T10:10:04.062Z,99199.60
2022-12-29T10:13:26.530Z,99204.40
2022-12-29T10:16:21.076Z,99191.80
2022-12-29T10:19:31.209Z,99195.00
2022-12-29T10:22:28.216Z,99193.60
2022-12-29T10:24:58.013Z,99205.80
2022-12-29T10:27:26.040Z,99199.40
2022-12-29T10:29:57.158Z,99205.20
2022-12-29T10:32:52.853Z,99208.40
2022-12-29T10:35:30.764Z,99205.00
2022-12-29T10:38:11.397Z,99200.40
2022-12-29T10:40:50.424Z,99205.40
2022-12-29T10:43:31.567Z,99208.40
2022-12-29T10:46:07.949Z,99212.60
2022-12-29T10:48:36.577Z,99218.00
2022-12-29T10:51:09.585Z,99218.80
2022-12-29T10:53:48.703Z,99219.20
2022-12-29T10:56:25.784Z,99225.80
2022-12-29T10:59:00.817Z,99226.80
2022-12-29T11:01:41.102Z,99235.60
2022-12-29T11:05:03.342Z,99237.00
2022-12-29T11:07:32.923Z,99241.20
2022-12-29T11:10:25.790Z,99242.80
2022-12-29T11:13:02.450Z,99240.00
2022-12-29T11:15:42.242Z,99243.60
2022-12-29T11:18:38.019Z,99255.00
2022-12-29T11:21:43.149Z,99258.40
2022-12-29T11:24:30.702Z,99255.00
2022-12-29T11:27:20.514Z,99254.20
2022-12-29T11:29:49.718Z,99257.20
2022-12-29T11:32:29.090Z,99263.60
2022-12-29T11:34:59.875Z,99265.80
2022-12-29T11:37:39.615Z,99264.00
2022-12-29T11:40:22.218Z,99270.60
2022-12-29T11:42:56.228Z,99273.60
2022-12-29T11:45:28.600Z,99272.60
2022-12-29T11:48:06.494Z,99274.20
2022-12-29T11:50:39.887Z,99277.60
2022-12-29T11:53:21.853Z,99282.60
2022-12-29T11:56:18.109Z,99280.40
2022-12-29T11:58:45.938Z,99275.40
2022-12-29T12:01:25.196Z,99280.40
2022-12-29T12:04:17.055Z,99292.20
2022-12-29T12:07:14.035Z,99292.40
2022-12-29T12:10:03.318Z,99289.40
2022-12-29T12:12:54.465Z,99292.20
2022-12-29T12:15:43.374Z,99289.60
2022-12-29T12:18:38.617Z,99287.40
2022-12-29T12:21:21.492Z,99300.20
2022-12-29T12:24:16.101Z,99287.00
2022-12-29T12:26:59.218Z,99293.40
2022-12-29T12:29:42.409Z,99291.80
2022-12-29T12:32:46.655Z,99292.60
2022-12-29T12:35:25.362Z,99299.20
2022-12-29T12:38:38.111Z,99292.60
2022-12-29T12:41:30.724Z,99298.80
2022-12-29T12:44:50.092Z,99301.20
2022-12-29T12:47:46.377Z,99296.80
2022-12-29T12:50:40.030Z,99299.20
2022-12-29T12:53:21.772Z,99306.60
2022-12-29T12:56:08.542Z,99305.80
2022-12-29T12:59:09.972Z,99299.60
2022-12-29T13:02:08.035Z,99307.40
2022-12-29T13:05:00.219Z,99308.40
2022-12-29T13:08:05.185Z,99313.80
2022-12-29T13:10:47.032Z,99316.40
2022-12-29T13:13:37.405Z,99316.20
2022-12-29T13:16:15.010Z,99316.00
2022-12-29T13:19:07.674Z,99311.00
2022-12-29T13:22:12.920Z,99310.20
2022-12-29T13:24:46.924Z,99302.40
2022-12-29T13:27:25.357Z,99306.00
2022-12-29T13:30:16.653Z,99305.60
2022-12-29T13:33:21.067Z,99306.00
2022-12-29T13:36:13.715Z,99303.80
2022-12-29T13:38:49.633Z,99309.00
2022-12-29T13:41:31.469Z,99319.00
2022-12-29T13:44:03.542Z,99315.40
2022-12-29T13:46:41.067Z,99312.80
2022-12-29T13:49:19.506Z,99316.00
2022-12-29T13:52:06.582Z,99318.00
2022-12-29T13:55:20.471Z,99324.40
2022-12-29T13:58:05.096Z,99329.80
2022-12-29T14:01:23.700Z,99329.00
2022-12-29T14:03:55.625Z,99333.60
2022-12-29T14:06:29.331Z,99339.00
2022-12-29T14:09:02.011Z,99338.60
2022-12-29T14:11:37.846Z,99334.20
2022-12-29T14:14:22.882Z,99340.60
2022-12-29T14:16:51.329Z,99347.20
2022-12-29T14:19:29.690Z,99342.60
2022-12-29T14:22:05.156Z,99350.00
2022-12-29T14:24:35.975Z,99346.80
2022-12-29T14:27:13.122Z,99346.60
2022-12-29T14:29:41.034Z,99358.60
2022-12-29T14:32:27.540Z,99358.80
2022-12-29T14:34:58.802Z,99366.40
2022-12-29T14:37:33.755Z,99362.40
2022-12-29T14:40:27.877Z,99371.60
2022-12-29T14:42:58.349Z,99366.20
2022-12-29T14:45:30.882Z,99371.80
2022-12-29T14:47:58.783Z,99374.20
2022-12-29T14:50:43.591Z,99378.80
2022-12-29T14:53:52.369Z,99387.20
2022-12-29T14:56:27.281Z,99389.20
2022-12-29T14:59:03.609Z,99392.60
2022-12-29T15:01:45.956Z,99399.00
2022-12-29T15:04:21.641Z,99406.20
2022-12-29T15:06:51.155Z,99410.20
2022-12-29T15:09:26.113Z,99409.20
2022-12-29T15:12:38.320Z,99419.80
2022-12-29T15:15:24.965Z,99419.60
2022-12-29T15:17:54.366Z,99421.40
2022-12-29T15:20:28.676Z,99422.60
2022-12-29T15:23:12.806Z,99426.60
2022-12-29T15:26:09.007Z,99431.40
2022-12-29T15:28:47.378Z,99433.00
2022-12-29T15:31:30.386Z,99437.20
2022-12-29T15:34:13.180Z,99439.60
2022-12-29T15:36:42.622Z,99437.80
2022-12-29T15:39:31.468Z,99446.40
2022-12-29T15:42:27.365Z,99458.20
2022-12-29T15:45:09.552Z,99462.20
2022-12-29T15:47:39.842Z,99466.20
2022-12-29T15:50:35.029Z,99471.20
2022-12-29T15:53:10.336Z,99470.40
2022-12-29T15:55:43.448Z,99471.40
2022-12-29T15:58:26.264Z,99473.80
2022-12-29T16:01:02.681Z,99477.40
2022-12-29T16:03:43.180Z,99477.80
2022-12-29T16:06:35.528Z,99486.20
2022-12-29T16:09:15.473Z,99483.40
2022-12-29T16:11:59.523Z,99485.40
2022-12-29T16:14:46.424Z,99477.20
2022-12-29T16:17:20.526Z,99500.40
2022-12-29T16:20:00.409Z,99513.40
2022-12-29T16:22:40.833Z,99517.80
2022-12-29T16:25:28.492Z,99518.00
2022-12-29T16:27:56.654Z,99534.00
2022-12-29T16:30:33.899Z,99535.60
2022-12-29T16:33:06.058Z,99523.80
2022-12-29T16:35:50.923Z,99525.80
2022-12-29T16:38:22.837Z,99526.40
2022-12-29T16:40:56.516Z,99521.00
2022-12-29T16:43:35.993Z,99516.80
2022-12-29T16:46:24.593Z,99531.60
2022-12-29T16:48:58.568Z,99534.20
2022-12-29T16:51:37.425Z,99538.60
2022-12-29T16:54:06.029Z,99543.00
2022-12-29T16:56:37.283Z,99543.60
2022-12-29T16:59:17.078Z,99538.80
2022-12-29T17:01:46.106Z,99546.80
2022-12-29T17:04:15.274Z,99547.20
2022-12-29T17:06:43.197Z,99545.80
2022-12-29T17:09:29.507Z,99550.20
2022-12-29T17:12:08.639Z,99564.20
2022-12-29T17:14:44.809Z,99568.20
2022-12-29T17:17:32.564Z,99572.40
2022-12-29T17:20:31.657Z,99560.20
2022-12-29T17:23:00.376Z,99574.60
2022-12-29T17:25:39.224Z,99579.20
2022-12-29T17:28:20.342Z,99577.80
2022-12-29T17:30:48.557Z,99588.40
2022-12-29T17:33:21.429Z,99589.40
2022-12-29T17:35:53.356Z,99594.00
2022-12-29T17:38:30.687Z,99604.40
2022-12-29T17:40:59.514Z,99610.40
2022-12-29T17:43:32.995Z,99609.40
2022-12-29T17:46:07.899Z,99610.60
2022-12-29T17:48:35.767Z,99606.80
2022-12-29T17:51:03.849Z,99599.40
2022-12-29T17:53:31.975Z,99601.80
2022-12-29T17:55:59.773Z,99603.80
2022-12-29T17:58:31.678Z,99611.20
2022-12-29T18:01:02.543Z,99610.00
2022-12-29T18:03:36.165Z,99616.80
2022-12-29T18:06:08.042Z,99619.40
2022-12-29T18:08:36.978Z,99622.00
2022-12-29T18:11:20.526Z,99628.20
2022-12-29T18:13:48.459Z,99626.00
2022-12-29T18:16:16.264Z,99630.00
2022-12-29T18:18:44.740Z,99641.00
2022-12-29T18:21:21.080Z,99648.40
2022-12-29T18:23:49.313Z,99648.80
2022-12-29T18:26:31.710Z,99657.60
2022-12-29T18:29:00.007Z,99657.00
2022-12-29T18:31:31.821Z,99657.20
2022-12-29T18:34:05.022Z,99664.60
2022-12-29T18:36:32.866Z,99664.00
2022-12-29T18:39:00.647Z,99672.80
2022-12-29T18:41:29.982Z,99670.80
2022-12-29T18:43:59.839Z,99670.00
2022-12-29T18:46:27.955Z,99674.40
2022-12-29T18:52:13.733Z,99680.20
2022-12-29T18:54:41.634Z,99686.20
2022-12-29T18:57:09.473Z,99684.40
2022-12-29T18:59:37.279Z,99684.60
2022-12-29T19:02:05.119Z,99685.20
2022-12-29T19:04:33.009Z,99685.20
2022-12-29T19:07:00.770Z,99692.00
2022-12-29T19:09:28.760Z,99694.80
2022-12-29T19:11:56.480Z,99690.60
2022-12-29T19:14:24.209Z,99689.40
2022-12-29T19:16:52.213Z,99689.20
2022-12-29T19:19:20.010Z,99689.40
2022-12-29T19:21:47.729Z,99683.20
2022-12-29T19:24:15.587Z,99686.60
2022-12-29T19:26:43.544Z,99686.60
2022-12-29T19:29:15.945Z,99688.60
2022-12-29T19:31:44.280Z,99688.00
2022-12-29T19:34:15.858Z,99694.60
2022-12-29T19:36:45.618Z,99700.20
2022-12-29T19:39:14.004Z,99704.60
2022-12-29T19:41:41.865Z,99710.40
2022-12-29T19:44:09.588Z,99720.20
2022-12-29T19:46:37.331Z,99717.00
2022-12-29T19:49:05.192Z,99724.00
2022-12-29T19:51:33.036Z,99721.60
2022-12-29T19:54:00.757Z,99722.80
2022-12-29T19:56:28.497Z,99729.20
2022-12-29T19:58:57.663Z,99730.80
2022-12-29T20:01:26.240Z,99734.00
2022-12-29T20:03:54.217Z,99734.60
2022-12-29T20:06:21.990Z,99728.60
2022-12-29T20:08:49.703Z,99728.40
2022-12-29T20:11:18.898Z,99726.80
2022-12-29T20:13:47.967Z,99730.80
2022-12-29T20:16:19.345Z,99736.00
2022-12-29T20:18:47.699Z,99740.00
2022-12-29T20:21:20.809Z,99746.40
2022-12-29T20:23:51.067Z,99750.40
2022-12-29T20:26:24.382Z,99751.20
2022-12-29T20:28:53.008Z,99745.40
2022-12-29T20:31:24.647Z,99748.00
2022-12-29T20:33:53.237Z,99743.80
2022-12-29T20:36:28.437Z,99746.00
2022-12-29T20:38:59.118Z,99745.40
2022-12-29T20:41:27.240Z,99745.60
2022-12-29T20:43:55.020Z,99745.80
2022-12-29T20:46:31.937Z,99752.60
2022-12-29T20:49:03.557Z,99756.40
2022-12-29T20:51:59.362Z,99758.60
2022-12-29T20:54:21.106Z,99756.20
2022-12-29T20:56:49.345Z,99753.80
2022-12-29T20:59:27.356Z,99746.40
2022-12-29T21:01:57.373Z,99737.60
2022-12-29T21:04:26.003Z,99741.80
2022-12-29T21:06:54.229Z,99742.20
2022-12-29T21:09:22.252Z,99739.80
2022-12-29T21:11:50.074Z,99738.20
2022-12-29T21:14:17.809Z,99744.40
2022-12-29T21:16:47.030Z,99740.00
2022-12-29T21:19:16.193Z,99738.20
2022-12-29T21:21:43.897Z,99732.60
2022-12-29T21:24:11.597Z,99736.60
2022-12-29T21:26:39.407Z,99736.80
2022-12-29T21:29:07.140Z,99732.80
2022-12-29T21:31:36.571Z,99732.00
2022-12-29T21:34:06.202Z,99737.20
2022-12-29T21:36:34.594Z,99736.40
2022-12-29T21:39:05.839Z,99734.80
2022-12-29T21:41:33.769Z,99740.60
2022-12-29T21:44:20.347Z,99752.20
2022-12-29T21:46:48.404Z,99755.00
2022-12-29T21:49:16.450Z,99756.00
2022-12-29T21:51:50.335Z,99755.00
2022-12-29T21:54:44.624Z,99751.60
2022-12-29T21:57:35.861Z,99748.00
2022-12-29T22:00:28.784Z,99751.60
2022-12-29T22:03:22.594Z,99743.80
2022-12-29T22:06:11.255Z,99737.80
2022-12-29T22:08:58.811Z,99725.80
2022-12-29T22:11:45.151Z,99724.60
2022-12-29T22:14:12.929Z,99728.80
2022-12-29T22:16:40.784Z,99735.00
2022-12-29T22:19:10.469Z,99735.00
2022-12-29T22:21:38.332Z,99737.40
2022-12-29T22:24:06.614Z,99733.80
2022-12-29T22:26:34.321Z,99743.60
2022-12-29T22:29:02.162Z,99749.40
2022-12-29T22:31:32.572Z,99752.60
2022-12-29T22:34:03.066Z,99747.60
2022-12-29T22:36:32.351Z,99747.40
2022-12-29T22:39:00.126Z,99747.60
2022-12-29T22:41:27.939Z,99747.60
2022-12-29T22:43:55.738Z,99745.60
2022-12-29T22:46:23.592Z,99750.60
2022-12-29T22:48:51.364Z,99751.40
2022-12-29T22:51:19.519Z,99747.00
2022-12-29T22:53:51.155Z,99748.80
2022-12-29T22:56:19.654Z,99744.00
2022-12-29T22:58:49.974Z,99745.20
2022-12-29T23:01:23.297Z,99744.20
2022-12-29T23:03:51.594Z,99746.20
2022-12-29T23:06:19.440Z,99746.00
2022-12-29T23:08:47.929Z,99743.20
2022-12-29T23:11:16.567Z,99746.80
2022-12-29T23:13:44.997Z,99747.00
2022-12-29T23:16:14.922Z,99742.00
2022-12-29T23:18:44.936Z,99737.60
2022-12-29T23:21:15.137Z,99735.40
2022-12-29T23:24:03.897Z,99735.80
2022-12-29T23:26:39.612Z,99727.00
2022-12-29T23:29:11.809Z,99726.60
2022-12-29T23:31:40.360Z,99715.60
2022-12-29T23:34:10.952Z,99714.40
2022-12-29T23:36:39.990Z,99720.60
2022-12-29T23:39:11.060Z,99717.20
2022-12-29T23:41:38.896Z,99715.00
2022-12-29T23:44:06.666Z,99721.20
2022-12-29T23:46:35.480Z,99714.40
2022-12-29T23:49:03.340Z,99719.20
2022-12-29T23:51:31.071Z,99713.40
2022-12-29T23:53:58.813Z,99705.00
2022-12-29T23:56:26.920Z,99707.80
2022-12-29T23:58:54.872Z,99710.00
